createdAt,value
2019-02-07T00:00:21.889Z,4.83
2019-02-07T00:01:21.831Z,4.88
2019-02-07T00:02:21.833Z,4.82
2019-02-07T00:03:21.809Z,4.88
2019-02-07T00:04:21.800Z,4.83
2019-02-07T00:05:21.789Z,4.88
2019-02-07T00:06:21.813Z,4.85
2019-02-07T00:07:21.767Z,4.85
2019-02-07T00:08:21.782Z,4.79
2019-02-07T00:09:21.746Z,4.89
2019-02-07T00:10:21.735Z,4.91
2019-02-07T00:11:21.724Z,4.86
2019-02-07T00:12:21.742Z,4.78
2019-02-07T00:13:21.703Z,4.82
2019-02-07T00:14:21.704Z,4.89
2019-02-07T00:15:21.682Z,4.91
2019-02-07T00:16:21.670Z,4.78
2019-02-07T00:17:21.659Z,4.86
2019-02-07T00:18:21.700Z,4.91
2019-02-07T00:19:21.638Z,5.04
2019-02-07T00:20:21.641Z,5.04
2019-02-07T00:21:21.621Z,5.16
2019-02-07T00:22:21.605Z,5.27
2019-02-07T00:23:21.599Z,5.32
2019-02-07T00:24:21.623Z,5.37
2019-02-07T00:25:21.572Z,5.40
2019-02-07T00:26:21.582Z,5.40
2019-02-07T00:27:21.552Z,5.40
2019-02-07T00:28:21.541Z,5.47
2019-02-07T00:29:21.541Z,5.59
2019-02-07T00:30:21.574Z,5.67
2019-02-07T00:31:21.507Z,5.70
2019-02-07T00:32:21.514Z,5.70
2019-02-07T00:33:21.492Z,5.76
2019-02-07T00:34:21.491Z,5.79
2019-02-07T00:35:21.469Z,5.77
2019-02-07T00:36:21.489Z,5.87
2019-02-07T00:37:21.442Z,5.91
2019-02-07T00:38:21.450Z,5.88
2019-02-07T00:39:21.425Z,5.85
2019-02-07T00:40:21.412Z,5.91
2019-02-07T00:41:21.401Z,5.76
2019-02-07T00:42:21.426Z,5.97
2019-02-07T00:43:21.378Z,5.97
2019-02-07T00:44:21.388Z,5.94
2019-02-07T00:45:21.358Z,6.05
2019-02-07T00:46:21.346Z,6.00
2019-02-07T00:47:21.338Z,6.03
2019-02-07T00:48:21.354Z,6.12
2019-02-07T00:49:21.313Z,6.08
2019-02-07T00:50:21.326Z,5.98
2019-02-07T00:51:21.293Z,6.08
2019-02-07T00:52:21.281Z,6.05
2019-02-07T00:53:21.271Z,6.02
2019-02-07T00:54:21.310Z,5.93
2019-02-07T00:55:21.248Z,5.93
2019-02-07T00:56:21.261Z,5.91
2019-02-07T00:57:21.229Z,5.90
2019-02-07T00:58:21.218Z,5.95
2019-02-07T00:59:21.207Z,5.93
2019-02-07T01:00:21.222Z,5.84
2019-02-07T01:01:21.185Z,5.94
2019-02-07T01:02:21.196Z,5.88
2019-02-07T01:03:21.164Z,5.84
2019-02-07T01:04:21.162Z,5.79
2019-02-07T01:05:21.143Z,5.75
2019-02-07T01:06:21.181Z,5.80
2019-02-07T01:07:21.128Z,5.69
2019-02-07T01:08:21.108Z,5.72
2019-02-07T01:09:21.113Z,5.67
2019-02-07T01:10:21.087Z,5.67
2019-02-07T01:11:21.078Z,5.58
2019-02-07T01:12:21.093Z,5.55
2019-02-07T01:13:21.054Z,5.50
2019-02-07T01:14:21.043Z,5.58
2019-02-07T01:15:21.048Z,5.50
2019-02-07T01:16:21.021Z,5.52
2019-02-07T01:17:21.011Z,5.51
2019-02-07T01:18:21.136Z,5.44
2019-02-07T01:19:20.994Z,5.43
2019-02-07T01:20:20.979Z,5.36
2019-02-07T01:21:20.988Z,5.36
2019-02-07T01:22:20.960Z,5.43
2019-02-07T01:23:20.948Z,5.39
2019-02-07T01:24:21.045Z,5.32
2019-02-07T01:25:20.926Z,5.29
2019-02-07T01:26:20.915Z,5.30
2019-02-07T01:27:20.929Z,5.29
2019-02-07T01:28:20.893Z,5.27
2019-02-07T01:29:20.881Z,5.29
2019-02-07T01:30:21.078Z,5.33
2019-02-07T01:31:20.859Z,5.43
2019-02-07T01:32:20.852Z,5.32
2019-02-07T01:33:20.882Z,5.41
2019-02-07T01:34:20.831Z,5.44
2019-02-07T01:35:20.817Z,5.50
2019-02-07T01:36:20.834Z,5.58
2019-02-07T01:37:20.795Z,5.59
2019-02-07T01:38:20.787Z,5.57
2019-02-07T01:39:20.803Z,5.65
2019-02-07T01:40:20.763Z,5.61
2019-02-07T01:41:20.751Z,5.82
2019-02-07T01:42:20.791Z,5.80
2019-02-07T01:43:20.729Z,5.84
2019-02-07T01:44:20.719Z,5.84
2019-02-07T01:45:20.732Z,5.95
2019-02-07T01:46:20.701Z,5.91
2019-02-07T01:47:20.688Z,5.94
2019-02-07T01:48:20.721Z,5.91
2019-02-07T01:49:20.668Z,5.93
2019-02-07T01:50:20.656Z,5.95
2019-02-07T01:51:20.655Z,5.98
2019-02-07T01:52:20.632Z,5.91
2019-02-07T01:53:20.626Z,5.94
2019-02-07T01:54:20.658Z,5.98
2019-02-07T01:55:20.602Z,5.88
2019-02-07T01:56:20.594Z,5.93
2019-02-07T01:57:20.593Z,5.95
2019-02-07T01:58:20.573Z,5.91
2019-02-07T01:59:20.556Z,5.91
2019-02-07T02:00:20.591Z,5.93
2019-02-07T02:01:20.535Z,5.90
2019-02-07T02:02:20.528Z,5.90
2019-02-07T02:03:20.532Z,5.95
2019-02-07T02:04:20.503Z,5.85
2019-02-07T02:05:20.504Z,5.82
2019-02-07T02:06:20.528Z,5.80
2019-02-07T02:07:20.470Z,5.80
2019-02-07T02:08:20.459Z,5.80
2019-02-07T02:09:20.474Z,5.77
2019-02-07T02:10:20.437Z,5.85
2019-02-07T02:11:20.427Z,5.79
2019-02-07T02:12:20.445Z,5.72
2019-02-07T02:13:20.408Z,5.80
2019-02-07T02:14:20.394Z,5.69
2019-02-07T02:15:24.529Z,5.67
2019-02-07T02:16:20.375Z,5.72
2019-02-07T02:17:20.361Z,5.72
2019-02-07T02:18:20.745Z,5.77
2019-02-07T02:19:20.340Z,5.70
2019-02-07T02:20:20.331Z,5.62
2019-02-07T02:21:20.335Z,5.66
2019-02-07T02:22:20.312Z,5.59
2019-02-07T02:23:20.299Z,5.62
2019-02-07T02:24:20.338Z,5.55
2019-02-07T02:25:20.282Z,5.50
2019-02-07T02:26:20.265Z,5.50
2019-02-07T02:27:20.299Z,5.47
2019-02-07T02:28:20.245Z,5.47
2019-02-07T02:29:20.233Z,5.39
2019-02-07T02:30:20.252Z,5.36
2019-02-07T02:31:20.211Z,5.36
2019-02-07T02:32:20.200Z,5.33
2019-02-07T02:33:20.213Z,5.27
2019-02-07T02:34:20.178Z,5.21
2019-02-07T02:35:20.168Z,5.14
2019-02-07T02:36:20.225Z,5.15
2019-02-07T02:37:20.145Z,5.14
2019-02-07T02:38:20.135Z,5.11
2019-02-07T02:39:20.140Z,5.12
2019-02-07T02:40:20.114Z,5.15
2019-02-07T02:41:20.182Z,5.04
2019-02-07T02:42:20.130Z,5.04
2019-02-07T02:43:20.087Z,5.04
2019-02-07T02:44:20.072Z,5.00
2019-02-07T02:45:20.078Z,5.04
2019-02-07T02:46:20.050Z,5.00
2019-02-07T02:47:20.039Z,4.97
2019-02-07T02:48:20.081Z,4.96
2019-02-07T02:49:20.020Z,4.96
2019-02-07T02:50:20.008Z,4.96
2019-02-07T02:51:20.007Z,4.97
2019-02-07T02:52:19.982Z,4.94
2019-02-07T02:53:19.974Z,4.79
2019-02-07T02:54:19.996Z,4.88
2019-02-07T02:55:19.950Z,4.85
2019-02-07T02:56:19.944Z,4.85
2019-02-07T02:57:19.955Z,4.77
2019-02-07T02:58:19.918Z,4.79
2019-02-07T02:59:19.907Z,4.85
2019-02-07T03:00:19.947Z,4.77
2019-02-07T03:01:19.890Z,4.69
2019-02-07T03:02:19.875Z,4.61
2019-02-07T03:03:19.887Z,4.75
2019-02-07T03:04:19.853Z,4.63
2019-02-07T03:05:19.844Z,4.66
2019-02-07T03:06:19.864Z,4.67
2019-02-07T03:07:19.822Z,4.64
2019-02-07T03:08:19.815Z,4.61
2019-02-07T03:09:19.806Z,4.61
2019-02-07T03:10:19.791Z,4.56
2019-02-07T03:11:19.779Z,4.59
2019-02-07T03:12:19.812Z,4.53
2019-02-07T03:13:19.756Z,4.57
2019-02-07T03:14:19.769Z,4.48
2019-02-07T03:15:19.746Z,4.54
2019-02-07T03:16:19.725Z,4.57
2019-02-07T03:17:19.713Z,4.53
2019-02-07T03:18:19.754Z,4.41
2019-02-07T03:19:19.699Z,4.45
2019-02-07T03:20:19.714Z,4.41
2019-02-07T03:21:19.678Z,4.38
2019-02-07T03:22:19.658Z,4.31
2019-02-07T03:23:19.647Z,4.35
2019-02-07T03:24:19.672Z,4.30
2019-02-07T03:25:19.630Z,4.23
2019-02-07T03:26:19.616Z,4.23
2019-02-07T03:27:19.618Z,4.26
2019-02-07T03:28:19.593Z,4.21
2019-02-07T03:29:19.580Z,4.18
2019-02-07T03:30:19.602Z,4.17
2019-02-07T03:31:19.586Z,4.20
2019-02-07T03:32:19.564Z,4.20
2019-02-07T03:33:19.607Z,4.18
2019-02-07T03:34:19.534Z,4.45
2019-02-07T03:35:19.516Z,4.56
2019-02-07T03:36:19.549Z,4.61
2019-02-07T03:37:19.492Z,4.82
2019-02-07T03:38:19.484Z,4.97
2019-02-07T03:39:19.500Z,4.97
2019-02-07T03:40:19.467Z,5.16
2019-02-07T03:41:19.454Z,5.12
2019-02-07T03:42:19.479Z,5.33
2019-02-07T03:43:19.427Z,5.39
2019-02-07T03:44:19.417Z,5.44
2019-02-07T03:45:19.430Z,5.44
2019-02-07T03:46:19.395Z,5.37
2019-02-07T03:47:19.385Z,5.40
2019-02-07T03:48:19.431Z,5.40
2019-02-07T03:49:19.362Z,5.43
2019-02-07T03:50:19.358Z,5.40
2019-02-07T03:51:19.358Z,5.39
2019-02-07T03:52:19.333Z,5.54
2019-02-07T03:53:19.325Z,5.54
2019-02-07T03:54:19.360Z,5.52
2019-02-07T03:55:19.297Z,5.54
2019-02-07T03:56:19.287Z,5.57
2019-02-07T03:57:19.294Z,5.57
2019-02-07T03:58:19.291Z,5.55
2019-02-07T03:59:19.257Z,5.65
2019-02-07T04:00:19.272Z,5.59
2019-02-07T04:01:19.233Z,5.58
2019-02-07T04:02:19.222Z,5.58
2019-02-07T04:03:19.229Z,5.44
2019-02-07T04:04:19.200Z,5.47
2019-02-07T04:05:19.190Z,5.34
2019-02-07T04:06:19.222Z,5.39
2019-02-07T04:07:19.167Z,5.36
2019-02-07T04:08:19.156Z,5.30
2019-02-07T04:09:19.156Z,5.27
2019-02-07T04:10:19.138Z,5.19
2019-02-07T04:11:19.136Z,5.15
2019-02-07T04:12:19.165Z,5.16
2019-02-07T04:13:19.108Z,5.11
2019-02-07T04:14:19.091Z,5.14
2019-02-07T04:15:19.090Z,5.21
2019-02-07T04:16:19.092Z,5.12
2019-02-07T04:17:19.065Z,5.14
2019-02-07T04:18:19.106Z,5.07
2019-02-07T04:19:19.038Z,5.09
2019-02-07T04:20:19.027Z,5.07
2019-02-07T04:21:19.020Z,5.07
2019-02-07T04:22:19.020Z,5.04
2019-02-07T04:23:18.996Z,5.09
2019-02-07T04:24:19.024Z,5.11
2019-02-07T04:25:18.973Z,5.04
2019-02-07T04:26:18.965Z,5.12
2019-02-07T04:27:18.949Z,5.18
2019-02-07T04:28:18.948Z,5.27
2019-02-07T04:29:18.982Z,5.33
2019-02-07T04:30:18.977Z,5.32
2019-02-07T04:31:19.749Z,5.37
2019-02-07T04:32:18.896Z,5.41
2019-02-07T04:33:18.884Z,5.40
2019-02-07T04:34:18.878Z,5.55
2019-02-07T04:35:18.885Z,5.62
2019-02-07T04:36:19.143Z,5.80
2019-02-07T04:37:18.842Z,5.93
2019-02-07T04:38:18.832Z,6.03
2019-02-07T04:39:18.822Z,6.16
2019-02-07T04:40:18.810Z,6.25
2019-02-07T04:41:18.806Z,6.28
2019-02-07T04:42:18.817Z,6.37
2019-02-07T04:43:18.774Z,6.38
2019-02-07T04:44:18.767Z,6.30
2019-02-07T04:45:18.767Z,6.30
2019-02-07T04:46:26.668Z,6.43
2019-02-07T04:47:19.796Z,6.52
2019-02-07T04:48:18.718Z,6.52
2019-02-07T04:49:18.708Z,6.49
2019-02-07T04:50:18.698Z,6.52
2019-02-07T04:51:18.690Z,6.47
2019-02-07T04:52:18.678Z,6.47
2019-02-07T04:53:18.724Z,6.49
2019-02-07T04:54:18.662Z,6.49
2019-02-07T04:55:18.648Z,6.52
2019-02-07T04:56:18.681Z,6.37
2019-02-07T04:57:18.624Z,6.35
2019-02-07T04:58:18.616Z,6.37
2019-02-07T04:59:18.642Z,6.31
2019-02-07T05:00:18.622Z,6.31
2019-02-07T05:01:18.579Z,6.34
2019-02-07T05:02:18.570Z,6.32
2019-02-07T05:03:18.559Z,6.28
2019-02-07T05:04:18.548Z,6.28
2019-02-07T05:05:18.695Z,6.25
2019-02-07T05:06:18.543Z,6.35
2019-02-07T05:07:18.528Z,6.32
2019-02-07T05:08:18.524Z,6.38
2019-02-07T05:09:18.504Z,6.30
2019-02-07T05:10:18.483Z,6.30
2019-02-07T05:11:18.547Z,6.28
2019-02-07T05:12:18.469Z,6.28
2019-02-07T05:13:18.471Z,6.27
2019-02-07T05:14:18.529Z,6.18
2019-02-07T05:15:18.429Z,6.27
2019-02-07T05:16:18.416Z,6.27
2019-02-07T05:17:18.455Z,6.31
2019-02-07T05:18:18.401Z,6.30
2019-02-07T05:19:18.408Z,6.28
2019-02-07T05:20:18.375Z,6.28
2019-02-07T05:21:18.371Z,6.21
2019-02-07T05:22:18.366Z,6.18
2019-02-07T05:23:18.405Z,6.19
2019-02-07T05:24:18.342Z,6.24
2019-02-07T05:25:18.383Z,6.16
2019-02-07T05:26:18.315Z,6.19
2019-02-07T05:27:18.307Z,6.16
2019-02-07T05:28:18.308Z,6.13
2019-02-07T05:29:18.322Z,6.12
2019-02-07T05:30:18.265Z,6.15
2019-02-07T05:31:18.262Z,6.09
2019-02-07T05:32:18.302Z,6.05
2019-02-07T05:33:18.229Z,6.13
2019-02-07T05:34:18.226Z,6.09
2019-02-07T05:35:18.274Z,6.08
2019-02-07T05:36:18.197Z,6.13
2019-02-07T05:37:18.191Z,6.13
2019-02-07T05:38:18.178Z,6.13
2019-02-07T05:39:18.177Z,6.19
2019-02-07T05:40:18.158Z,6.19
2019-02-07T05:41:18.183Z,6.08
2019-02-07T05:42:18.138Z,6.13
2019-02-07T05:43:18.132Z,6.12
2019-02-07T05:44:18.118Z,6.12
2019-02-07T05:45:18.103Z,6.19
2019-02-07T05:46:18.124Z,6.18
2019-02-07T05:47:18.108Z,6.18
2019-02-07T05:48:18.093Z,6.28
2019-02-07T05:49:18.077Z,6.18
2019-02-07T05:50:18.048Z,6.25
2019-02-07T05:51:18.037Z,6.15
2019-02-07T05:52:18.041Z,6.27
2019-02-07T05:53:18.060Z,6.19
2019-02-07T05:54:18.003Z,6.31
2019-02-07T05:55:17.998Z,6.09
2019-02-07T05:56:17.982Z,6.11
2019-02-07T05:57:17.970Z,6.15
2019-02-07T05:58:17.982Z,6.06
2019-02-07T05:59:18.151Z,6.18
2019-02-07T06:00:17.954Z,6.11
2019-02-07T06:01:17.937Z,6.05
2019-02-07T06:02:17.959Z,6.13
2019-02-07T06:03:17.904Z,6.08
2019-02-07T06:04:17.908Z,6.15
2019-02-07T06:05:17.975Z,6.12
2019-02-07T06:06:17.889Z,6.24
2019-02-07T06:07:17.874Z,6.15
2019-02-07T06:08:17.852Z,6.12
2019-02-07T06:09:17.845Z,6.16
2019-02-07T06:10:17.886Z,6.25
2019-02-07T06:11:17.871Z,6.21
2019-02-07T06:12:17.814Z,6.19
2019-02-07T06:13:17.799Z,6.24
2019-02-07T06:14:17.789Z,6.18
2019-02-07T06:15:17.777Z,6.31
2019-02-07T06:16:17.784Z,6.34
2019-02-07T06:17:17.800Z,6.31
2019-02-07T06:18:17.742Z,6.34
2019-02-07T06:19:17.733Z,6.31
2019-02-07T06:20:17.729Z,6.34
2019-02-07T06:21:17.716Z,6.32
2019-02-07T06:22:17.700Z,6.35
2019-02-07T06:23:17.727Z,6.35
2019-02-07T06:24:17.676Z,6.37
2019-02-07T06:25:17.677Z,6.34
2019-02-07T06:26:17.654Z,6.49
2019-02-07T06:27:17.644Z,6.53
2019-02-07T06:28:17.640Z,6.49
2019-02-07T06:29:17.865Z,6.52
2019-02-07T06:30:17.612Z,6.53
2019-02-07T06:31:17.599Z,6.50
2019-02-07T06:32:17.604Z,6.43
2019-02-07T06:33:17.580Z,6.46
2019-02-07T06:34:28.383Z,6.37
2019-02-07T06:35:18.868Z,6.31
2019-02-07T06:36:17.641Z,6.35
2019-02-07T06:37:17.545Z,6.45
2019-02-07T06:38:17.533Z,6.37
2019-02-07T06:39:17.527Z,6.43
2019-02-07T06:40:17.536Z,6.42
2019-02-07T06:41:17.689Z,6.42
2019-02-07T06:42:17.497Z,6.32
2019-02-07T06:43:17.584Z,6.30
2019-02-07T06:44:17.457Z,6.21
2019-02-07T06:45:17.455Z,6.18
2019-02-07T06:46:17.467Z,6.27
2019-02-07T06:47:17.483Z,6.27
2019-02-07T06:48:17.417Z,6.21
2019-02-07T06:49:17.446Z,6.31
2019-02-07T06:50:17.396Z,6.21
2019-02-07T06:51:17.392Z,6.18
2019-02-07T06:52:17.373Z,6.27
2019-02-07T06:53:17.571Z,6.21
2019-02-07T06:54:17.382Z,6.21
2019-02-07T06:55:17.342Z,6.30
2019-02-07T06:56:17.328Z,6.21
2019-02-07T06:57:17.328Z,6.27
2019-02-07T06:58:17.308Z,6.18
2019-02-07T06:59:17.335Z,6.15
2019-02-07T07:00:17.306Z,6.27
2019-02-07T07:01:17.291Z,6.21
2019-02-07T07:02:17.262Z,6.21
2019-02-07T07:03:17.256Z,6.19
2019-02-07T07:04:17.238Z,6.31
2019-02-07T07:05:17.263Z,6.30
2019-02-07T07:06:17.242Z,6.31
2019-02-07T07:07:17.211Z,6.37
2019-02-07T07:08:17.196Z,6.35
2019-02-07T07:09:18.165Z,6.27
2019-02-07T07:10:17.174Z,6.19
2019-02-07T07:11:17.203Z,6.28
2019-02-07T07:12:17.159Z,6.28
2019-02-07T07:13:17.141Z,6.27
2019-02-07T07:14:17.134Z,6.31
2019-02-07T07:15:17.125Z,6.37
2019-02-07T07:16:17.109Z,6.28
2019-02-07T07:17:25.507Z,6.46
2019-02-07T07:18:18.103Z,6.42
2019-02-07T07:19:17.076Z,6.38
2019-02-07T07:20:17.066Z,6.45
2019-02-07T07:21:17.056Z,6.50
2019-02-07T07:22:17.044Z,6.50
2019-02-07T07:23:17.073Z,6.49
2019-02-07T07:24:17.042Z,6.47
2019-02-07T07:25:17.012Z,6.47
2019-02-07T07:26:17.002Z,6.35
2019-02-07T07:27:16.993Z,6.40
2019-02-07T07:28:16.988Z,6.38
2019-02-07T07:29:17.042Z,6.40
2019-02-07T07:30:17.018Z,6.49
2019-02-07T07:31:16.962Z,6.53
2019-02-07T07:32:16.941Z,6.50
2019-02-07T07:33:16.957Z,6.47
2019-02-07T07:34:16.916Z,6.50
2019-02-07T07:35:16.954Z,6.50
2019-02-07T07:36:16.899Z,6.50
2019-02-07T07:37:16.884Z,6.47
2019-02-07T07:38:16.875Z,6.57
2019-02-07T07:39:16.874Z,6.50
2019-02-07T07:40:16.861Z,6.50
2019-02-07T07:41:16.875Z,6.50
2019-02-07T07:42:16.829Z,6.63
2019-02-07T07:43:16.818Z,6.52
2019-02-07T07:44:16.808Z,6.63
2019-02-07T07:45:16.801Z,6.52
2019-02-07T07:46:16.810Z,6.65
2019-02-07T07:47:16.804Z,6.61
2019-02-07T07:48:16.767Z,6.63
2019-02-07T07:49:16.751Z,6.65
2019-02-07T07:50:16.741Z,6.52
2019-02-07T07:51:16.731Z,6.63
2019-02-07T07:52:16.726Z,6.61
2019-02-07T07:53:16.741Z,6.47
2019-02-07T07:54:16.698Z,6.55
2019-02-07T07:55:16.688Z,6.50
2019-02-07T07:56:16.677Z,6.47
2019-02-07T07:57:16.668Z,6.56
2019-02-07T07:58:16.662Z,6.47
2019-02-07T07:59:16.673Z,6.46
2019-02-07T08:00:19.018Z,6.49
2019-02-07T08:01:16.624Z,6.64
2019-02-07T08:02:16.611Z,6.67
2019-02-07T08:03:16.600Z,6.63
2019-02-07T08:04:16.601Z,6.64
2019-02-07T08:05:16.775Z,6.53
2019-02-07T08:06:16.568Z,6.61
2019-02-07T08:07:16.558Z,6.74
2019-02-07T08:08:16.547Z,6.75
2019-02-07T08:09:16.536Z,6.86
2019-02-07T08:10:16.525Z,6.83
2019-02-07T08:11:16.587Z,6.82
2019-02-07T08:12:16.506Z,6.91
2019-02-07T08:13:16.496Z,6.83
2019-02-07T08:14:16.482Z,6.81
2019-02-07T08:15:16.473Z,6.78
2019-02-07T08:16:16.461Z,6.79
2019-02-07T08:17:16.500Z,6.81
2019-02-07T08:18:16.439Z,6.85
2019-02-07T08:19:16.428Z,6.86
2019-02-07T08:20:16.417Z,6.83
2019-02-07T08:21:16.406Z,6.85
2019-02-07T08:22:16.395Z,6.81
2019-02-07T08:23:16.448Z,6.81
2019-02-07T08:24:16.373Z,6.79
2019-02-07T08:25:16.366Z,6.88
2019-02-07T08:26:16.354Z,6.86
2019-02-07T08:27:16.341Z,6.85
2019-02-07T08:28:16.331Z,6.85
2019-02-07T08:29:16.515Z,6.82
2019-02-07T08:30:16.353Z,6.81
2019-02-07T08:31:16.298Z,6.78
2019-02-07T08:32:16.287Z,6.79
2019-02-07T08:33:16.280Z,6.86
2019-02-07T08:34:16.269Z,6.85
2019-02-07T08:35:16.316Z,6.73
2019-02-07T08:36:16.246Z,6.74
2019-02-07T08:37:16.235Z,6.75
2019-02-07T08:38:16.221Z,6.78
2019-02-07T08:39:16.214Z,6.70
2019-02-07T08:40:16.199Z,6.78
2019-02-07T08:41:16.260Z,6.88
2019-02-07T08:42:16.181Z,6.88
2019-02-07T08:43:16.167Z,6.81
2019-02-07T08:44:16.157Z,6.83
2019-02-07T08:45:16.148Z,6.79
2019-02-07T08:46:16.137Z,6.91
2019-02-07T08:47:16.178Z,6.86
2019-02-07T08:48:16.114Z,6.85
2019-02-07T08:49:16.108Z,6.86
2019-02-07T08:50:16.093Z,6.88
2019-02-07T08:51:16.084Z,6.74
2019-02-07T08:52:16.073Z,6.82
2019-02-07T08:53:16.133Z,6.81
2019-02-07T08:54:16.050Z,6.82
2019-02-07T08:55:16.040Z,6.81
2019-02-07T08:56:16.027Z,6.85
2019-02-07T08:57:16.015Z,6.83
2019-02-07T08:58:16.008Z,6.88
2019-02-07T08:59:16.095Z,6.86
2019-02-07T09:00:15.983Z,6.85
2019-02-07T09:01:15.974Z,6.86
2019-02-07T09:02:15.961Z,6.88
2019-02-07T09:03:15.952Z,6.88
2019-02-07T09:04:15.939Z,6.86
2019-02-07T09:05:16.027Z,6.92
2019-02-07T09:06:15.923Z,6.88
2019-02-07T09:07:15.911Z,6.85
2019-02-07T09:08:15.896Z,6.89
2019-02-07T09:09:15.892Z,6.89
2019-02-07T09:10:15.883Z,6.85
2019-02-07T09:11:15.933Z,6.89
2019-02-07T09:12:15.856Z,6.83
2019-02-07T09:13:15.844Z,6.88
2019-02-07T09:14:15.835Z,6.89
2019-02-07T09:15:15.822Z,6.86
2019-02-07T09:16:15.813Z,6.85
2019-02-07T09:17:15.863Z,6.83
2019-02-07T09:18:15.793Z,6.86
2019-02-07T09:19:15.779Z,6.89
2019-02-07T09:20:15.765Z,6.85
2019-02-07T09:21:15.754Z,6.89
2019-02-07T09:22:15.745Z,7.00
2019-02-07T09:23:15.786Z,6.96
2019-02-07T09:24:15.724Z,6.99
2019-02-07T09:25:15.715Z,7.00
2019-02-07T09:26:15.706Z,7.01
2019-02-07T09:27:15.689Z,7.06
2019-02-07T09:28:15.680Z,6.97
2019-02-07T09:29:15.879Z,6.92
2019-02-07T09:30:15.658Z,6.99
2019-02-07T09:31:15.644Z,7.00
2019-02-07T09:32:15.637Z,7.03
2019-02-07T09:33:15.623Z,7.04
2019-02-07T09:34:15.617Z,7.03
2019-02-07T09:35:15.665Z,7.10
2019-02-07T09:36:15.597Z,7.06
2019-02-07T09:37:15.580Z,7.18
2019-02-07T09:38:15.572Z,7.08
2019-02-07T09:39:15.557Z,7.11
2019-02-07T09:40:15.554Z,7.18
2019-02-07T09:41:15.602Z,7.22
2019-02-07T09:42:15.526Z,7.31
2019-02-07T09:43:15.512Z,7.29
2019-02-07T09:44:15.505Z,7.26
2019-02-07T09:45:15.496Z,7.26
2019-02-07T09:46:15.484Z,7.26
2019-02-07T09:47:15.525Z,7.22
2019-02-07T09:48:21.657Z,7.18
2019-02-07T09:49:16.451Z,7.25
2019-02-07T09:50:15.436Z,7.22
2019-02-07T09:51:15.431Z,7.33
2019-02-07T09:52:15.416Z,7.31
2019-02-07T09:53:23.712Z,7.46
2019-02-07T09:54:16.414Z,7.57
2019-02-07T09:55:15.389Z,7.52
2019-02-07T09:56:15.382Z,7.66
2019-02-07T09:57:15.365Z,7.64
2019-02-07T09:58:15.361Z,7.62
2019-02-07T09:59:15.393Z,7.83
2019-02-07T10:00:15.338Z,7.88
2019-02-07T10:01:15.332Z,7.98
2019-02-07T10:02:15.307Z,8.01
2019-02-07T10:03:15.306Z,8.12
2019-02-07T10:04:15.284Z,8.19
2019-02-07T10:05:15.321Z,8.19
2019-02-07T10:06:15.286Z,8.23
2019-02-07T10:07:15.258Z,8.38
2019-02-07T10:08:15.241Z,8.41
2019-02-07T10:09:15.234Z,8.53
2019-02-07T10:10:15.220Z,8.49
2019-02-07T10:11:15.387Z,8.50
2019-02-07T10:12:15.200Z,8.52
2019-02-07T10:13:15.187Z,8.65
2019-02-07T10:14:15.172Z,8.53
2019-02-07T10:15:15.165Z,8.57
2019-02-07T10:16:15.233Z,8.56
2019-02-07T10:17:15.282Z,8.57
2019-02-07T10:18:15.224Z,8.67
2019-02-07T10:19:15.543Z,8.60
2019-02-07T10:20:15.191Z,8.63
2019-02-07T10:21:15.192Z,8.55
2019-02-07T10:22:15.170Z,8.63
2019-02-07T10:23:15.130Z,8.71
2019-02-07T10:24:20.890Z,8.70
2019-02-07T10:25:23.177Z,8.74
2019-02-07T10:26:15.047Z,8.75
2019-02-07T10:27:15.036Z,8.57
2019-02-07T10:28:15.023Z,8.67
2019-02-07T10:29:15.047Z,8.68
2019-02-07T10:30:15.002Z,8.56
2019-02-07T10:31:14.989Z,8.57
2019-02-07T10:32:14.980Z,8.53
2019-02-07T10:33:14.983Z,8.57
2019-02-07T10:34:14.957Z,8.59
2019-02-07T10:35:22.630Z,8.57
2019-02-07T10:36:15.943Z,8.53
2019-02-07T10:37:15.022Z,8.56
2019-02-07T10:38:14.915Z,8.53
2019-02-07T10:39:14.905Z,8.53
2019-02-07T10:40:14.894Z,8.63
2019-02-07T10:41:14.936Z,8.56
2019-02-07T10:42:14.868Z,8.56
2019-02-07T10:43:14.892Z,8.60
2019-02-07T10:44:14.846Z,8.65
2019-02-07T10:45:14.835Z,8.57
2019-02-07T10:46:14.825Z,8.60
2019-02-07T10:47:14.868Z,8.72
2019-02-07T10:48:14.804Z,8.60
2019-02-07T10:49:14.798Z,8.63
2019-02-07T10:50:14.786Z,8.70
2019-02-07T10:51:14.771Z,8.77
2019-02-07T10:52:14.765Z,8.77
2019-02-07T10:53:14.869Z,8.85
2019-02-07T10:54:14.738Z,8.88
2019-02-07T10:55:14.732Z,8.93
2019-02-07T10:56:14.724Z,9.01
2019-02-07T10:57:14.788Z,8.93
2019-02-07T10:58:14.728Z,8.98
2019-02-07T10:59:14.751Z,8.93
2019-02-07T11:00:14.694Z,9.16
2019-02-07T11:01:14.678Z,9.22
2019-02-07T11:02:14.660Z,9.29
2019-02-07T11:03:14.653Z,9.27
2019-02-07T11:04:14.666Z,9.29
2019-02-07T11:05:14.814Z,9.40
2019-02-07T11:06:14.612Z,9.37
2019-02-07T11:07:14.613Z,9.30
2019-02-07T11:08:14.589Z,9.24
2019-02-07T11:09:14.573Z,9.18
2019-02-07T11:10:14.559Z,9.15
2019-02-07T11:11:14.594Z,9.11
2019-02-07T11:12:14.595Z,9.08
2019-02-07T11:13:14.535Z,9.01
2019-02-07T11:14:14.620Z,9.01
2019-02-07T11:15:14.550Z,8.98
2019-02-07T11:16:14.527Z,8.99
2019-02-07T11:17:14.536Z,8.92
2019-02-07T11:18:14.483Z,8.99
2019-02-07T11:19:21.041Z,9.01
2019-02-07T11:20:15.447Z,8.92
2019-02-07T11:21:14.441Z,9.01
2019-02-07T11:22:14.426Z,9.11
2019-02-07T11:23:14.507Z,9.04
2019-02-07T11:24:14.408Z,9.11
2019-02-07T11:25:14.401Z,9.23
2019-02-07T11:26:14.392Z,9.34
2019-02-07T11:27:14.371Z,9.40
2019-02-07T11:28:14.360Z,9.45
2019-02-07T11:29:14.380Z,9.40
2019-02-07T11:30:14.340Z,9.40
2019-02-07T11:31:14.342Z,9.45
2019-02-07T11:32:14.320Z,9.41
2019-02-07T11:33:14.310Z,9.59
2019-02-07T11:34:14.296Z,9.54
2019-02-07T11:35:14.326Z,9.62
2019-02-07T11:36:14.272Z,9.59
2019-02-07T11:37:14.273Z,9.57
2019-02-07T11:38:14.251Z,9.52
2019-02-07T11:39:14.241Z,9.59
2019-02-07T11:40:14.229Z,9.52
2019-02-07T11:41:14.387Z,9.69
2019-02-07T11:42:14.209Z,9.69
2019-02-07T11:43:14.222Z,9.63
2019-02-07T11:44:14.187Z,9.63
2019-02-07T11:45:14.176Z,9.69
2019-02-07T11:46:14.163Z,9.63
2019-02-07T11:47:14.184Z,9.69
2019-02-07T11:48:14.146Z,9.67
2019-02-07T11:49:14.140Z,9.72
2019-02-07T11:50:14.124Z,9.66
2019-02-07T11:51:14.113Z,9.66
2019-02-07T11:52:14.100Z,9.65
2019-02-07T11:53:14.125Z,9.67
2019-02-07T11:54:14.078Z,9.81
2019-02-07T11:55:14.082Z,9.78
2019-02-07T11:56:14.057Z,9.83
2019-02-07T11:57:14.046Z,9.77
2019-02-07T11:58:14.040Z,9.63
2019-02-07T11:59:14.054Z,9.80
2019-02-07T12:00:14.015Z,9.70
2019-02-07T12:01:14.016Z,9.77
2019-02-07T12:02:13.993Z,9.78
2019-02-07T12:03:13.982Z,9.78
2019-02-07T12:04:13.971Z,9.81
2019-02-07T12:05:14.002Z,9.78
2019-02-07T12:06:13.951Z,9.66
2019-02-07T12:07:13.968Z,9.72
2019-02-07T12:08:13.929Z,9.65
2019-02-07T12:09:13.917Z,9.66
2019-02-07T12:10:13.907Z,9.72
2019-02-07T12:11:13.932Z,9.70
2019-02-07T12:12:13.884Z,9.78
2019-02-07T12:13:13.908Z,9.77
2019-02-07T12:14:13.866Z,9.98
2019-02-07T12:15:13.851Z,9.94
2019-02-07T12:16:13.841Z,9.93
2019-02-07T12:17:13.872Z,9.98
2019-02-07T12:18:13.819Z,10.01
2019-02-07T12:19:18.040Z,9.90
2019-02-07T12:20:13.802Z,9.91
2019-02-07T12:21:13.791Z,9.94
2019-02-07T12:22:13.778Z,9.96
2019-02-07T12:23:13.804Z,9.84
2019-02-07T12:24:13.756Z,9.80
2019-02-07T12:25:13.761Z,9.78
2019-02-07T12:26:13.735Z,9.75
2019-02-07T12:27:13.726Z,9.87
2019-02-07T12:28:13.711Z,9.81
2019-02-07T12:29:13.743Z,9.84
2019-02-07T12:30:13.689Z,9.87
2019-02-07T12:31:13.687Z,9.80
2019-02-07T12:32:13.670Z,9.65
2019-02-07T12:33:13.658Z,9.80
2019-02-07T12:34:13.646Z,9.75
2019-02-07T12:35:13.675Z,9.87
2019-02-07T12:36:13.623Z,9.90
2019-02-07T12:37:13.625Z,9.87
2019-02-07T12:38:13.602Z,9.93
2019-02-07T12:39:13.592Z,9.90
2019-02-07T12:40:13.588Z,9.88
2019-02-07T12:41:13.624Z,9.90
2019-02-07T12:42:13.558Z,10.02
2019-02-07T12:43:13.570Z,9.90
2019-02-07T12:44:13.541Z,9.99
2019-02-07T12:45:13.526Z,10.14
2019-02-07T12:46:13.517Z,10.12
2019-02-07T12:47:13.533Z,10.17
2019-02-07T12:48:13.493Z,10.10
2019-02-07T12:49:13.500Z,10.20
2019-02-07T12:50:13.471Z,10.28
2019-02-07T12:51:13.462Z,10.34
2019-02-07T12:52:13.450Z,10.54
2019-02-07T12:53:13.478Z,10.60
2019-02-07T12:54:13.433Z,10.48
2019-02-07T12:55:13.445Z,10.64
2019-02-07T12:56:13.407Z,10.57
2019-02-07T12:57:13.398Z,10.70
2019-02-07T12:58:13.384Z,10.82
2019-02-07T12:59:13.411Z,10.86
2019-02-07T13:00:13.369Z,10.79
2019-02-07T13:01:13.387Z,10.67
2019-02-07T13:02:13.340Z,10.60
2019-02-07T13:03:13.339Z,10.52
2019-02-07T13:04:13.319Z,10.65
2019-02-07T13:05:13.348Z,10.62
2019-02-07T13:06:13.296Z,10.55
2019-02-07T13:07:13.314Z,10.38
2019-02-07T13:08:13.275Z,10.28
2019-02-07T13:09:13.265Z,10.34
2019-02-07T13:10:13.253Z,10.48
2019-02-07T13:11:13.283Z,10.55
2019-02-07T13:12:13.281Z,10.48
2019-02-07T13:13:13.234Z,10.55
2019-02-07T13:14:13.208Z,10.52
2019-02-07T13:15:13.195Z,10.58
2019-02-07T13:16:13.327Z,10.72
2019-02-07T13:17:13.226Z,10.73